createdAt,value
2022-10-26T00:04:52.787Z,180.92308
2022-10-26T00:09:54.602Z,180.01533
2022-10-26T00:14:56.721Z,194.4065
2022-10-26T00:19:58.635Z,181.83784
2022-10-26T00:25:00.140Z,197.49794
2022-10-26T00:30:01.745Z,180.92308
2022-10-26T00:35:10.716Z,186.51969
2022-10-26T00:40:23.221Z,188.44444
2022-10-26T00:45:25.217Z,194.4065
2022-10-26T00:50:26.797Z,182.75969
2022-10-26T00:55:28.240Z,180.92308
2022-10-26T01:00:30.209Z,180.92308
2022-10-26T01:05:32.353Z,183.68872
2022-10-26T01:10:34.265Z,185.56863
2022-10-26T01:15:36.814Z,181.83784
2022-10-26T01:20:38.569Z,189.41833
2022-10-26T01:25:40.065Z,182.75969
2022-10-26T01:30:42.064Z,175.57895
2022-10-26T01:35:43.787Z,176.45283
2022-10-26T01:40:45.336Z,178.22053
2022-10-26T01:45:47.169Z,191.38956
2022-10-26T01:50:48.816Z,183.68872
2022-10-26T01:55:50.444Z,173.85075
2022-10-26T02:00:52.214Z,166.38267
2022-10-26T02:05:53.691Z,159.38462
2022-10-26T02:10:55.406Z,157.14879
2022-10-26T02:15:57.526Z,155.68385
2022-10-26T02:20:59.446Z,152.10811
2022-10-26T02:26:01.067Z,151.40741
2022-10-26T02:31:02.669Z,152.81356
2022-10-26T02:36:04.174Z,154.23891
2022-10-26T02:41:05.754Z,155.68385
2022-10-26T02:46:07.809Z,161.66784
2022-10-26T02:51:09.360Z,166.38267
2022-10-26T02:56:11.134Z,161.66784
2022-10-26T03:01:12.686Z,161.66784
2022-10-26T03:06:14.324Z,158.63415
2022-10-26T03:11:16.246Z,162.43972
2022-10-26T03:16:18.354Z,164.78853
2022-10-26T03:21:19.893Z,172.99628
2022-10-26T03:26:21.461Z,168.81752
2022-10-26T03:31:23.168Z,192.3871
2022-10-26T03:36:24.889Z,192.3871
2022-10-26T03:41:26.832Z,190.4
2022-10-26T03:46:28.863Z,183.68872
2022-10-26T03:51:30.800Z,181.83784
2022-10-26T03:56:32.741Z,174.71161
2022-10-26T04:01:34.745Z,175.57895
2022-10-26T04:06:36.665Z,174.71161
2022-10-26T04:11:38.526Z,172.14815
2022-10-26T04:16:40.831Z,163.21708
2022-10-26T04:21:42.576Z,160.90141
2022-10-26T04:26:44.477Z,164
2022-10-26T04:31:46.250Z,160.14035
2022-10-26T04:36:48.167Z,159.38462
2022-10-26T04:41:49.614Z,147.97351
2022-10-26T04:46:51.289Z,160.14035
2022-10-26T04:51:53.289Z,154.23891
2022-10-26T04:56:55.394Z,148.65116
2022-10-26T05:01:57.620Z,147.97351
2022-10-26T05:06:59.382Z,152.10811
2022-10-26T05:12:01.108Z,148.65116
2022-10-26T05:17:03.022Z,144.65147
2022-10-26T05:22:04.825Z,159.38462
2022-10-26T05:27:06.380Z,163.21708
2022-10-26T05:32:08.039Z,167.18841
2022-10-26T05:37:09.752Z,174.71161
2022-10-26T05:42:11.408Z,175.57895
2022-10-26T05:47:13.714Z,183.68872
2022-10-26T05:52:15.635Z,181.83784
2022-10-26T05:57:17.373Z,177.33333
2022-10-26T06:02:19.473Z,193.39271
2022-10-26T06:07:21.623Z,198.54545
2022-10-26T06:12:23.540Z,196.45902
2022-10-26T06:17:26.347Z,198.54545
2022-10-26T06:22:28.152Z,198.54545
2022-10-26T06:27:30.096Z,202.82353
2022-10-26T06:32:32.347Z,208.37768
2022-10-26T06:37:34.122Z,199.60166
2022-10-26T06:42:35.925Z,199.60166
2022-10-26T06:47:38.523Z,184.625
2022-10-26T06:52:40.538Z,207.24786
2022-10-26T06:57:42.566Z,196.45902
2022-10-26T07:02:44.602Z,203.91561
2022-10-26T07:07:46.939Z,197.49794
2022-10-26T07:12:49.038Z,185.56863
2022-10-26T07:17:51.521Z,178.22053
2022-10-26T07:22:53.741Z,174.71161
2022-10-26T07:27:55.766Z,183.68872
2022-10-26T07:32:57.850Z,180.01533
2022-10-26T07:37:59.808Z,184.625
2022-10-26T07:43:01.856Z,191.38956
2022-10-26T07:48:03.730Z,198.54545
2022-10-26T07:53:05.263Z,216.56637
2022-10-26T07:58:06.876Z,210.66667
2022-10-26T08:03:08.549Z,182.75969
2022-10-26T08:08:10.014Z,178.22053
2022-10-26T08:13:11.521Z,188.44444
2022-10-26T08:18:14.124Z,210.66667
2022-10-26T08:23:15.619Z,208.37768
2022-10-26T08:28:17.374Z,206.12766
2022-10-26T08:33:19.203Z,233.20188
2022-10-26T08:38:21.092Z,290.06742
2022-10-26T08:43:22.852Z,308.49704
2022-10-26T08:48:25.042Z,329
2022-10-26T08:53:27.180Z,292.0226
2022-10-26T08:58:28.781Z,237.33333
2022-10-26T09:03:30.694Z,261.52577
2022-10-26T09:08:32.482Z,288.13408
2022-10-26T09:13:34.114Z,363.04762
2022-10-26T09:18:37.418Z,296
2022-10-26T09:23:39.340Z,259.89744
2022-10-26T09:28:41.266Z,312.86228
2022-10-26T09:33:42.991Z,377.80282
2022-10-26T09:38:44.416Z,461.64706
2022-10-26T09:43:45.868Z,536.30769
2022-10-26T09:48:47.833Z,536.30769
2022-10-26T09:53:49.478Z,579.05155
2022-10-26T09:58:50.906Z,799.55556
2022-10-26T10:03:52.721Z,1006.06897
2022-10-26T10:08:57.033Z,1254.6383
2022-10-26T10:13:59.014Z,2877.33333
2022-10-26T10:19:00.705Z,1410.66667
2022-10-26T10:24:02.550Z,1810.66667
2022-10-26T10:29:04.117Z,1484
2022-10-26T10:34:05.878Z,1704
2022-10-26T10:39:07.437Z,1869
2022-10-26T10:44:09.013Z,1106.26415
2022-10-26T10:49:10.956Z,1201.14286
2022-10-26T10:54:12.404Z,1128.61538
2022-10-26T10:59:13.950Z,1044
2022-10-26T11:09:17.317Z,1523.48718
2022-10-26T11:14:18.913Z,1755.76471
2022-10-26T11:19:20.672Z,1410.66667
2022-10-26T11:24:22.379Z,1565.05263
2022-10-26T11:29:23.845Z,1410.66667
2022-10-26T11:34:25.751Z,1931.09677
2022-10-26T11:39:27.555Z,2068.13793
2022-10-26T11:44:29.573Z,2225.48148
2022-10-26T11:49:31.695Z,1997.33333
2022-10-26T11:54:33.637Z,1755.76471
2022-10-26T11:59:35.215Z,2068.13793
2022-10-26T12:04:37.287Z,1655.11111
2022-10-26T12:09:39.127Z,1608.86486
2022-10-26T12:14:40.875Z,1704
2022-10-26T12:19:43.856Z,1344
2022-10-26T12:24:45.810Z,1704
2022-10-26T12:29:47.237Z,1024.70175
2022-10-26T12:34:48.928Z,1446.43902
2022-10-26T12:39:50.349Z,1312.88889
2022-10-26T12:44:52.107Z,1376.55814
2022-10-26T12:49:53.784Z,1704
2022-10-26T12:54:55.707Z,1869
2022-10-26T12:59:57.631Z,2144
2022-10-26T13:04:59.629Z,1608.86486
2022-10-26T13:10:01.277Z,1755.76471
2022-10-26T13:15:03.081Z,1227.33333
2022-10-26T13:20:05.186Z,1106.26415
2022-10-26T13:25:06.613Z,1084.74074
2022-10-26T13:30:08.273Z,988.0678
2022-10-26T13:35:09.816Z,1106.26415
2022-10-26T13:40:11.701Z,1227.33333
2022-10-26T13:45:13.290Z,1565.05263
2022-10-26T13:50:15.156Z,1176
2022-10-26T13:55:16.931Z,937.54839
2022-10-26T14:00:18.733Z,849.88235
2022-10-26T14:05:20.820Z,686.16867
2022-10-26T14:10:22.568Z,620.92308
2022-10-26T14:15:24.458Z,509.13761
2022-10-26T14:20:26.571Z,504
2022-10-26T14:25:41.691Z,475.03448
2022-10-26T14:30:50.402Z,470.49573
2022-10-26T14:35:52.482Z,429.03937
2022-10-26T14:40:54.264Z,429.03937
2022-10-26T14:45:56.246Z,390.37681
2022-10-26T14:50:58.658Z,425.25
2022-10-26T14:56:00.703Z,371.77778
2022-10-26T15:01:02.512Z,410.66667
2022-10-26T15:06:04.279Z,387.16547
2022-10-26T15:11:05.739Z,306.35294
2022-10-26T15:16:07.224Z,300.06936
2022-10-26T15:21:09.337Z,354.66667
2022-10-26T15:26:10.827Z,425.25
2022-10-26T15:31:12.617Z,371.77778
2022-10-26T15:36:14.197Z,284.33149
2022-10-26T15:41:15.605Z,247.44828
2022-10-26T15:46:17.033Z,263.17098
2022-10-26T15:51:18.939Z,292.0226
2022-10-26T15:56:20.574Z,244.4878
2022-10-26T16:01:22.135Z,183.68872
2022-10-26T16:06:23.786Z,154.9589
2022-10-26T16:11:25.267Z,148.65116
2022-10-26T16:16:27.041Z,141.4359
2022-10-26T16:21:28.676Z,144.65147
2022-10-26T16:26:30.641Z,171.30627
2022-10-26T16:31:32.186Z,211.82609
2022-10-26T16:36:34.034Z,225.27854
2022-10-26T16:41:35.654Z,215.36564
2022-10-26T16:46:37.300Z,199.60166
2022-10-26T16:51:39.161Z,203.91561
2022-10-26T16:56:40.626Z,206.12766
2022-10-26T17:01:42.338Z,194.4065
2022-10-26T17:06:43.869Z,226.56881
2022-10-26T17:11:45.439Z,231.85047
2022-10-26T17:16:46.901Z,278.78261
2022-10-26T17:21:48.595Z,317.33333
2022-10-26T17:26:50.090Z,338.87179
2022-10-26T17:31:51.660Z,349.26316
2022-10-26T17:36:53.320Z,387.16547
2022-10-26T17:41:55.028Z,407.15789
2022-10-26T17:46:56.733Z,407.15789
2022-10-26T17:51:58.715Z,396.94118
2022-10-26T17:57:00.211Z,396.94118
2022-10-26T18:02:01.800Z,374.76923
2022-10-26T18:07:03.802Z,363.04762
2022-10-26T18:12:05.297Z,363.04762
2022-10-26T18:17:06.807Z,357.42282
2022-10-26T18:22:08.608Z,400.2963
2022-10-26T18:27:10.544Z,453.09091
2022-10-26T18:32:12.069Z,566.22222
2022-10-26T18:37:13.940Z,988.0678
2022-10-26T18:42:15.608Z,723.74684
2022-10-26T18:47:17.163Z,259.89744
2022-10-26T18:52:19.020Z,387.16547
2022-10-26T18:57:20.613Z,644
2022-10-26T19:02:22.534Z,530.66667
2022-10-26T19:07:24.617Z,363.04762
2022-10-26T19:12:26.429Z,371.77778
2022-10-26T19:17:28.537Z,351.94702
2022-10-26T19:22:30.676Z,354.66667
2022-10-26T19:27:32.442Z,304.23392
2022-10-26T19:32:34.425Z,271.65957
2022-10-26T19:37:36.146Z,269.92593
2022-10-26T19:42:38.124Z,243.02913
2022-10-26T19:47:40.020Z,237.33333
2022-10-26T19:52:42.022Z,231.85047
2022-10-26T19:57:43.446Z,222.73303
2022-10-26T20:02:45.118Z,209.51724
2022-10-26T20:07:46.649Z,206.12766
2022-10-26T20:12:48.723Z,214.17544
2022-10-26T20:17:50.898Z,205.01695
2022-10-26T20:22:53.100Z,225.27854
2022-10-26T20:27:55.196Z,244.4878
2022-10-26T20:32:57.031Z,244.4878
2022-10-26T20:37:59.049Z,253.54774
2022-10-26T20:43:00.819Z,244.4878
2022-10-26T20:48:02.445Z,247.44828
2022-10-26T20:53:04.326Z,240.15385
2022-10-26T20:58:05.975Z,263.17098
2022-10-26T21:03:07.543Z,278.78261
2022-10-26T21:08:09.280Z,333.87342
2022-10-26T21:13:10.945Z,360.21622
2022-10-26T21:18:12.766Z,338.87179
2022-10-26T21:23:14.700Z,354.66667
2022-10-26T21:28:16.390Z,338.87179
2022-10-26T21:33:20.098Z,329
2022-10-26T21:38:24.623Z,308.49704
2022-10-26T21:43:26.247Z,294
2022-10-26T21:48:28.007Z,243.02913
2022-10-26T21:53:30.144Z,214.17544
2022-10-26T21:58:32.000Z,207.24786
2022-10-26T22:03:33.746Z,209.51724
2022-10-26T22:08:35.496Z,215.36564
2022-10-26T22:13:37.288Z,206.12766
2022-10-26T22:18:43.507Z,205.01695
2022-10-26T22:23:52.167Z,211.82609
2022-10-26T22:28:53.795Z,198.54545
2022-10-26T22:33:55.330Z,186.51969
2022-10-26T22:38:57.373Z,183.68872
2022-10-26T22:43:59.291Z,180.92308
2022-10-26T22:49:01.489Z,172.99628
2022-10-26T22:54:03.621Z,154.9589
2022-10-26T22:59:05.476Z,144.65147
2022-10-26T23:04:06.942Z,145.30719
2022-10-26T23:09:08.975Z,153.52381
2022-10-26T23:14:10.546Z,148.65116
2022-10-26T23:19:12.368Z,146.63158
2022-10-26T23:24:14.324Z,152.81356
2022-10-26T23:29:15.805Z,145.96721
2022-10-26T23:34:17.251Z,140.17834
2022-10-26T23:39:18.728Z,138.93671
2022-10-26T23:44:20.891Z,135.30435
2022-10-26T23:49:22.332Z,142.70968
2022-10-26T23:54:24.527Z,148.65116
2022-10-26T23:59:26.286Z,146.63158
